Aracena, Spain
Current Conditions -  °F | °C
As of 2:30 PM on Friday 19 Dec 2014 (Local Time) from LEZL Reporting Station
Clear Clear  
Wind Chill: 59°   Ceiling: Unl
Heat Index: 59°   Visibility: 6mi
Dew Point: 50°   Wind: 0mph
Humidity: 72%   Direction: NA
Pressure: 30.42"   Gusts: NA
Location:  37.89°N, 6.56°W
Report Text: LEZL 191330Z 00000KT CAVOK 15/10 Q1030 NOSIG
Loading
Personal Weather Stations






























Interactive Weather Map New forecast layout! Learn more

10-Day Weather Forecast

Advertisements
Track Severe Weather on mobile